createdAt,value
2016-12-28T00:01:03.541Z,0
2016-12-28T00:02:25.994Z,0
2016-12-28T00:03:47.448Z,0
2016-12-28T00:05:09.238Z,0
2016-12-28T00:06:31.652Z,0
2016-12-28T00:07:53.813Z,0
2016-12-28T00:09:15.905Z,0
2016-12-28T00:10:38.476Z,0
2016-12-28T00:12:00.645Z,0
2016-12-28T00:13:22.420Z,0
2016-12-28T00:14:44.510Z,0
2016-12-28T00:16:06.599Z,0
2016-12-28T00:17:29.037Z,0
2016-12-28T00:18:51.545Z,0
2016-12-28T00:20:13.542Z,0
2016-12-28T00:21:35.718Z,0
2016-12-28T00:22:57.810Z,0
2016-12-28T00:24:20.352Z,0
2016-12-28T00:25:42.858Z,0
2016-12-28T00:27:04.327Z,0
2016-12-28T00:28:26.451Z,0
2016-12-28T00:29:47.707Z,0
2016-12-28T00:31:09.866Z,0
2016-12-28T00:32:31.966Z,0
2016-12-28T00:33:54.069Z,0
2016-12-28T00:35:15.852Z,0
2016-12-28T00:36:37.978Z,0
2016-12-28T00:37:59.849Z,0
2016-12-28T00:39:22.121Z,0
2016-12-28T00:40:43.899Z,0
2016-12-28T00:42:06.380Z,0
2016-12-28T00:43:28.511Z,0
2016-12-28T00:44:50.626Z,0
2016-12-28T00:46:12.489Z,0
2016-12-28T00:47:34.750Z,0
2016-12-28T00:48:57.159Z,0
2016-12-28T00:50:19.692Z,0
2016-12-28T00:51:42.109Z,0
2016-12-28T00:53:04.304Z,0
2016-12-28T00:54:26.221Z,0
2016-12-28T00:55:48.456Z,0
2016-12-28T00:57:10.377Z,0
2016-12-28T00:58:32.601Z,0
2016-12-28T00:59:54.687Z,0
2016-12-28T01:01:16.506Z,0
2016-12-28T01:02:38.982Z,0
2016-12-28T01:04:00.779Z,0
2016-12-28T01:05:22.562Z,0
2016-12-28T01:06:44.361Z,0
2016-12-28T01:08:06.761Z,0
2016-12-28T01:09:28.613Z,0
2016-12-28T01:10:50.723Z,0
2016-12-28T01:12:12.262Z,0
2016-12-28T01:13:34.460Z,0
2016-12-28T01:14:56.358Z,0
2016-12-28T01:16:18.453Z,0
2016-12-28T01:17:40.628Z,0
2016-12-28T01:19:02.204Z,0
2016-12-28T01:20:24.327Z,0
2016-12-28T01:21:46.451Z,0
2016-12-28T01:23:08.271Z,0
2016-12-28T01:24:30.356Z,0
2016-12-28T01:25:52.279Z,0
2016-12-28T01:27:14.797Z,0
2016-12-28T01:28:36.579Z,0
2016-12-28T01:29:58.875Z,0
2016-12-28T01:31:20.641Z,0
2016-12-28T01:32:42.436Z,0
2016-12-28T01:34:04.515Z,0
2016-12-28T01:35:26.986Z,0
2016-12-28T01:36:48.536Z,0
2016-12-28T01:38:10.348Z,0
2016-12-28T01:39:32.137Z,0
2016-12-28T01:40:54.563Z,0
2016-12-28T01:42:16.662Z,0
2016-12-28T01:43:38.431Z,0
2016-12-28T01:45:00.957Z,0
2016-12-28T01:46:22.560Z,0
2016-12-28T01:47:44.315Z,0
2016-12-28T01:49:05.791Z,0
2016-12-28T01:50:27.889Z,0
2016-12-28T01:51:49.685Z,0
2016-12-28T01:53:11.591Z,0
2016-12-28T01:54:33.827Z,0
2016-12-28T01:55:56.055Z,0
2016-12-28T01:57:18.128Z,0
2016-12-28T01:58:40.312Z,0
2016-12-28T02:00:02.144Z,0
2016-12-28T02:01:23.634Z,0
2016-12-28T02:02:46.033Z,0
2016-12-28T02:04:07.217Z,0
2016-12-28T02:05:28.700Z,0
2016-12-28T02:06:50.874Z,0
2016-12-28T02:08:12.986Z,0
2016-12-28T02:09:34.780Z,0
2016-12-28T02:10:56.236Z,0
2016-12-28T02:12:17.690Z,0
2016-12-28T02:13:39.821Z,0
2016-12-28T02:15:01.443Z,0
2016-12-28T02:16:23.219Z,0
2016-12-28T02:17:45.433Z,0
2016-12-28T02:19:06.591Z,0
2016-12-28T02:20:28.747Z,0
2016-12-28T02:21:50.843Z,0
2016-12-28T02:23:12.938Z,0
2016-12-28T02:24:34.723Z,0
2016-12-28T02:25:56.254Z,0
2016-12-28T02:27:18.131Z,0
2016-12-28T02:28:40.049Z,0
2016-12-28T02:30:01.959Z,0
2016-12-28T02:31:24.245Z,0
2016-12-28T02:32:46.768Z,0
2016-12-28T02:34:08.562Z,0
2016-12-28T02:35:30.652Z,0
2016-12-28T02:36:53.072Z,0
2016-12-28T02:38:15.484Z,0
2016-12-28T02:39:37.662Z,0
2016-12-28T02:40:59.112Z,0
2016-12-28T02:42:20.955Z,0
2016-12-28T02:43:42.746Z,0
2016-12-28T02:45:04.526Z,0
2016-12-28T02:46:25.986Z,0
2016-12-28T02:47:48.221Z,0
2016-12-28T02:49:09.995Z,0
2016-12-28T02:50:32.185Z,0
2016-12-28T02:51:54.284Z,0
2016-12-28T02:53:16.365Z,0
2016-12-28T02:54:38.452Z,0
2016-12-28T02:56:00.858Z,0
2016-12-28T02:57:22.009Z,0
2016-12-28T02:58:44.149Z,0
2016-12-28T03:00:06.255Z,0
2016-12-28T03:01:27.561Z,0
2016-12-28T03:02:49.350Z,0
2016-12-28T03:04:11.516Z,0
2016-12-28T03:05:33.609Z,0
2016-12-28T03:06:55.833Z,0
2016-12-28T03:08:17.790Z,0
2016-12-28T03:09:39.317Z,0
2016-12-28T03:11:00.780Z,0
2016-12-28T03:12:22.662Z,0
2016-12-28T03:13:44.754Z,0
2016-12-28T03:15:06.576Z,0
2016-12-28T03:16:29.042Z,0
2016-12-28T03:17:50.975Z,0
2016-12-28T03:19:12.874Z,0
2016-12-28T03:20:34.683Z,0
2016-12-28T03:21:57.137Z,0
2016-12-28T03:23:19.247Z,0
2016-12-28T03:24:41.467Z,0
2016-12-28T03:26:04.037Z,0
2016-12-28T03:27:26.426Z,0
2016-12-28T03:28:48.587Z,0
2016-12-28T03:30:11.009Z,0
2016-12-28T03:31:33.125Z,0
2016-12-28T03:32:55.274Z,0
2016-12-28T03:34:17.421Z,0
2016-12-28T03:35:38.938Z,0
2016-12-28T03:37:00.723Z,0
2016-12-28T03:38:22.826Z,0
2016-12-28T03:39:44.611Z,0
2016-12-28T03:41:06.377Z,0
2016-12-28T03:42:28.193Z,0
2016-12-28T03:43:49.754Z,0
2016-12-28T03:45:12.150Z,0
2016-12-28T03:46:33.921Z,0
2016-12-28T03:47:55.127Z,0
2016-12-28T03:49:17.545Z,0
2016-12-28T03:50:39.974Z,0
2016-12-28T03:52:02.043Z,0
2016-12-28T03:53:23.772Z,0
2016-12-28T03:54:45.607Z,0
2016-12-28T03:56:07.455Z,0
2016-12-28T03:57:29.668Z,0
2016-12-28T03:58:51.529Z,0
2016-12-28T04:00:13.352Z,0
2016-12-28T04:01:34.826Z,0
2016-12-28T04:02:56.747Z,0
2016-12-28T04:04:19.140Z,0
2016-12-28T04:05:41.215Z,0
2016-12-28T04:07:03.317Z,0
2016-12-28T04:08:25.706Z,0
2016-12-28T04:09:47.999Z,0
2016-12-28T04:11:09.793Z,0
2016-12-28T04:12:32.187Z,0
2016-12-28T04:13:54.748Z,0
2016-12-28T04:15:17.146Z,0
2016-12-28T04:16:39.546Z,0
2016-12-28T04:18:01.720Z,0
2016-12-28T04:19:23.804Z,0
2016-12-28T04:20:45.940Z,0
2016-12-28T04:22:08.215Z,0
2016-12-28T04:23:29.994Z,0
2016-12-28T04:24:51.765Z,0
2016-12-28T04:26:13.867Z,0
2016-12-28T04:27:35.651Z,0
2016-12-28T04:28:57.802Z,0
2016-12-28T04:30:19.889Z,0
2016-12-28T04:31:41.335Z,0
2016-12-28T04:33:03.235Z,0
2016-12-28T04:34:25.425Z,0
2016-12-28T04:35:47.831Z,0
2016-12-28T04:37:09.292Z,0
2016-12-28T04:38:31.060Z,0
2016-12-28T04:39:53.141Z,0
2016-12-28T04:41:15.264Z,0
2016-12-28T04:42:37.075Z,0
2016-12-28T04:43:59.494Z,0
2016-12-28T04:45:21.576Z,0
2016-12-28T04:46:43.466Z,0
2016-12-28T04:48:05.886Z,0
2016-12-28T04:49:27.722Z,0
2016-12-28T04:50:49.503Z,0
2016-12-28T04:52:11.582Z,0
2016-12-28T04:53:33.715Z,0
2016-12-28T04:54:55.795Z,0
2016-12-28T04:56:17.713Z,0
2016-12-28T04:57:40.118Z,0
2016-12-28T04:59:02.189Z,0
2016-12-28T05:00:24.289Z,0
2016-12-28T05:01:46.082Z,0
2016-12-28T05:03:08.180Z,0
2016-12-28T05:04:29.960Z,0
2016-12-28T05:05:51.743Z,0
2016-12-28T05:07:14.143Z,0
2016-12-28T05:08:36.445Z,0
2016-12-28T05:09:58.927Z,0
2016-12-28T05:11:21.052Z,0
2016-12-28T05:12:42.826Z,0
2016-12-28T05:14:04.672Z,0
2016-12-28T05:15:26.886Z,0
2016-12-28T05:16:48.655Z,0
2016-12-28T05:18:10.458Z,0
2016-12-28T05:19:32.716Z,0
2016-12-28T05:20:55.259Z,0
2016-12-28T05:22:17.052Z,0
2016-12-28T05:23:39.122Z,0
2016-12-28T05:25:01.212Z,0
2016-12-28T05:26:23.418Z,0
2016-12-28T05:27:46.006Z,0
2016-12-28T05:29:08.459Z,0
2016-12-28T05:30:30.530Z,0
2016-12-28T05:31:52.645Z,0
2016-12-28T05:33:14.417Z,0
2016-12-28T05:34:36.511Z,0
2016-12-28T05:35:58.712Z,0
2016-12-28T05:37:20.465Z,0
2016-12-28T05:38:42.302Z,0
2016-12-28T05:40:04.831Z,0
2016-12-28T05:41:26.925Z,0
2016-12-28T05:42:49.014Z,0
2016-12-28T05:44:10.810Z,0
2016-12-28T05:45:32.603Z,0
2016-12-28T05:46:54.767Z,0
2016-12-28T05:48:17.165Z,0
2016-12-28T05:49:39.273Z,0
2016-12-28T05:51:01.682Z,0
2016-12-28T05:52:23.751Z,0
2016-12-28T05:53:45.928Z,0
2016-12-28T05:55:07.411Z,0
2016-12-28T05:56:29.808Z,0
2016-12-28T05:57:52.217Z,0
2016-12-28T05:59:14.353Z,0
2016-12-28T06:00:36.212Z,0
2016-12-28T06:01:57.987Z,0
2016-12-28T06:03:20.138Z,0
2016-12-28T06:04:42.219Z,0
2016-12-28T06:06:04.036Z,0
2016-12-28T06:07:26.731Z,0
2016-12-28T06:08:48.872Z,0
2016-12-28T06:10:10.727Z,0
2016-12-28T06:11:33.145Z,0
2016-12-28T06:12:55.329Z,0
2016-12-28T06:14:17.120Z,0
2016-12-28T06:15:39.193Z,0
2016-12-28T06:17:01.122Z,0
2016-12-28T06:18:23.508Z,0
2016-12-28T06:19:45.912Z,0
2016-12-28T06:21:07.691Z,0
2016-12-28T06:22:29.781Z,0
2016-12-28T06:23:51.603Z,0
2016-12-28T06:25:13.998Z,0
2016-12-28T06:26:36.129Z,0
2016-12-28T06:27:57.595Z,0
2016-12-28T06:29:19.861Z,0
2016-12-28T06:30:42.102Z,0
2016-12-28T06:32:03.619Z,0
2016-12-28T06:33:25.791Z,0
2016-12-28T06:34:48.053Z,0
2016-12-28T06:36:10.146Z,0
2016-12-28T06:37:31.934Z,0
2016-12-28T06:38:53.785Z,0
2016-12-28T06:40:16.202Z,0
2016-12-28T06:41:38.344Z,0
2016-12-28T06:42:59.852Z,0
2016-12-28T06:44:21.986Z,0
2016-12-28T06:45:44.425Z,0
2016-12-28T06:47:05.642Z,0
2016-12-28T06:48:27.498Z,0
2016-12-28T06:49:49.896Z,0
2016-12-28T06:51:11.690Z,0
2016-12-28T06:52:33.514Z,0
2016-12-28T06:53:55.585Z,0
2016-12-28T06:55:17.749Z,0
2016-12-28T06:56:39.842Z,0
2016-12-28T06:58:02.250Z,4
2016-12-28T06:59:24.038Z,0
2016-12-28T07:00:45.601Z,0
2016-12-28T07:02:07.692Z,4
2016-12-28T07:03:29.918Z,4
2016-12-28T07:04:52.321Z,4
2016-12-28T07:06:14.107Z,8
2016-12-28T07:07:36.244Z,4
2016-12-28T07:08:58.665Z,8
2016-12-28T07:10:20.745Z,8
2016-12-28T07:11:42.941Z,12
2016-12-28T07:13:05.384Z,16
2016-12-28T07:14:27.481Z,16
2016-12-28T07:15:49.601Z,20
2016-12-28T07:17:11.913Z,24
2016-12-28T07:18:34.049Z,28
2016-12-28T07:19:56.450Z,32
2016-12-28T07:21:18.991Z,44
2016-12-28T07:22:41.410Z,52
2016-12-28T07:24:03.806Z,64
2016-12-28T07:25:25.648Z,76
2016-12-28T07:26:47.515Z,88
2016-12-28T07:28:08.987Z,104
2016-12-28T07:29:31.106Z,124
2016-12-28T07:30:53.659Z,136
2016-12-28T07:32:15.279Z,152
2016-12-28T07:33:37.399Z,168
2016-12-28T07:34:59.592Z,188
2016-12-28T07:36:21.452Z,204
2016-12-28T07:37:43.579Z,228
2016-12-28T07:39:05.367Z,244
2016-12-28T07:40:27.160Z,264
2016-12-28T07:41:48.626Z,284
2016-12-28T07:43:10.798Z,308
2016-12-28T07:44:32.923Z,332
2016-12-28T07:45:55.007Z,352
2016-12-28T07:47:17.107Z,380
2016-12-28T07:48:38.919Z,408
2016-12-28T07:50:00.992Z,440
2016-12-28T07:51:23.087Z,476
2016-12-28T07:52:45.204Z,516
2016-12-28T07:54:06.989Z,552
2016-12-28T07:55:29.503Z,592
2016-12-28T07:56:51.609Z,632
2016-12-28T07:58:13.814Z,672
2016-12-28T07:59:34.977Z,712
2016-12-28T08:00:57.041Z,752
2016-12-28T08:02:18.527Z,788
2016-12-28T08:03:39.987Z,824
2016-12-28T08:05:02.688Z,872
2016-12-28T08:06:24.835Z,928
2016-12-28T08:07:46.616Z,988
2016-12-28T08:09:08.713Z,1028
2016-12-28T08:10:30.810Z,1084
2016-12-28T08:11:52.887Z,1148
2016-12-28T08:13:14.688Z,1200
2016-12-28T08:14:36.133Z,1232
2016-12-28T08:15:58.573Z,1252
2016-12-28T08:17:20.735Z,1264
2016-12-28T08:18:42.518Z,1276
2016-12-28T08:20:04.936Z,1308
2016-12-28T08:21:27.023Z,1344
2016-12-28T08:22:49.134Z,1372
2016-12-28T08:24:10.801Z,1384
2016-12-28T08:25:32.960Z,1400
2016-12-28T08:26:55.055Z,1448
2016-12-28T08:28:16.853Z,1504
2016-12-28T08:29:39.253Z,1564
2016-12-28T08:31:01.396Z,1668
2016-12-28T08:32:23.572Z,1760
2016-12-28T08:33:45.368Z,1780
2016-12-28T08:35:07.154Z,1852
2016-12-28T08:36:29.348Z,1836
2016-12-28T08:37:51.574Z,1920
2016-12-28T08:39:13.037Z,1956
2016-12-28T08:40:35.122Z,2036
2016-12-28T08:41:57.283Z,2116
2016-12-28T08:43:19.077Z,2296
2016-12-28T08:44:41.537Z,2372
2016-12-28T08:46:02.683Z,2536
2016-12-28T08:47:24.510Z,2476
2016-12-28T08:48:46.724Z,2496
2016-12-28T08:50:08.601Z,2580
2016-12-28T08:51:30.705Z,2636
2016-12-28T08:52:52.918Z,2708
2016-12-28T08:54:15.024Z,2776
2016-12-28T08:55:36.830Z,2908
2016-12-28T08:56:58.716Z,3128
2016-12-28T08:58:20.539Z,3168
2016-12-28T08:59:42.427Z,3252
2016-12-28T09:01:04.837Z,3208
2016-12-28T09:02:27.301Z,3344
2016-12-28T09:03:48.784Z,3640
2016-12-28T09:05:11.211Z,4172
2016-12-28T09:06:33.204Z,4480
2016-12-28T09:07:55.057Z,4684
2016-12-28T09:09:17.449Z,4868
2016-12-28T09:10:39.289Z,4936
2016-12-28T09:12:01.781Z,5252
2016-12-28T09:13:23.875Z,5392
2016-12-28T09:14:45.971Z,5696
2016-12-28T09:16:08.478Z,5924
2016-12-28T09:17:30.003Z,6168
2016-12-28T09:18:52.122Z,6388
2016-12-28T09:20:13.908Z,6264
2016-12-28T09:21:36.102Z,5960
2016-12-28T09:22:58.203Z,5904
2016-12-28T09:24:20.300Z,6316
2016-12-28T09:25:41.818Z,6648
2016-12-28T09:27:04.237Z,6628
2016-12-28T09:28:26.337Z,6600
2016-12-28T09:29:47.579Z,6492
2016-12-28T09:31:10.003Z,6804
2016-12-28T09:32:31.798Z,6816
2016-12-28T09:33:54.249Z,6160
2016-12-28T09:35:16.800Z,6008
2016-12-28T09:36:38.956Z,6316
2016-12-28T09:38:01.358Z,6700
2016-12-28T09:39:22.851Z,7100
2016-12-28T09:40:44.666Z,6912
2016-12-28T09:42:06.828Z,6868
2016-12-28T09:43:28.640Z,6896
2016-12-28T09:44:50.865Z,6468
2016-12-28T09:46:13.287Z,6292
2016-12-28T09:47:35.133Z,6220
2016-12-28T09:48:56.905Z,6180
2016-12-28T09:50:18.698Z,6056
2016-12-28T09:51:41.226Z,6072
2016-12-28T09:53:03.338Z,5792
2016-12-28T09:54:25.869Z,5680
2016-12-28T09:55:47.673Z,5904
2016-12-28T09:57:10.095Z,5792
2016-12-28T09:58:32.207Z,5696
2016-12-28T09:59:54.079Z,5656
2016-12-28T10:01:16.448Z,5484
2016-12-28T10:02:38.927Z,5728
2016-12-28T10:04:00.697Z,5648
2016-12-28T10:05:22.315Z,5372
2016-12-28T10:06:44.110Z,5228
2016-12-28T10:08:06.550Z,5316
2016-12-28T10:09:28.432Z,5732
2016-12-28T10:10:50.596Z,5416
2016-12-28T10:12:12.386Z,5280
2016-12-28T10:13:33.978Z,5424
2016-12-28T10:14:56.165Z,5380
2016-12-28T10:16:17.645Z,5040
2016-12-28T10:17:39.419Z,5008
2016-12-28T10:19:01.852Z,5144
2016-12-28T10:20:24.031Z,5160
2016-12-28T10:21:46.242Z,5140
2016-12-28T10:23:08.685Z,5000
2016-12-28T10:24:30.774Z,5068
2016-12-28T10:25:52.670Z,4996
2016-12-28T10:27:15.107Z,4752
2016-12-28T10:28:36.869Z,4416
2016-12-28T10:29:58.950Z,4352
2016-12-28T10:31:21.385Z,4372
2016-12-28T10:32:43.185Z,4304
2016-12-28T10:34:05.321Z,4412
2016-12-28T10:35:27.911Z,4480
2016-12-28T10:36:50.028Z,4344
2016-12-28T10:38:12.219Z,4080
2016-12-28T10:39:34.665Z,4188
2016-12-28T10:40:56.183Z,4412
2016-12-28T10:42:17.693Z,4668
2016-12-28T10:43:39.483Z,4860
2016-12-28T10:45:01.044Z,5000
2016-12-28T10:46:22.549Z,5060
2016-12-28T10:47:44.709Z,4852
2016-12-28T10:49:06.516Z,4628
2016-12-28T10:50:29.127Z,4380
2016-12-28T10:51:50.922Z,4400
2016-12-28T10:53:13.060Z,4528
2016-12-28T10:54:34.944Z,4536
2016-12-28T10:55:57.361Z,4608
2016-12-28T10:57:19.536Z,4528
2016-12-28T10:58:41.689Z,4232
2016-12-28T11:00:03.915Z,4060
2016-12-28T11:01:26.082Z,3916
2016-12-28T11:02:48.495Z,3956
2016-12-28T11:04:11.003Z,3964
2016-12-28T11:05:32.834Z,4080
2016-12-28T11:06:54.774Z,4276
2016-12-28T11:08:16.917Z,4452
2016-12-28T11:09:38.127Z,4648
2016-12-28T11:10:59.914Z,4648
2016-12-28T11:12:22.038Z,4328
2016-12-28T11:13:43.933Z,4224
2016-12-28T11:15:06.044Z,4344
2016-12-28T11:16:27.860Z,4460
2016-12-28T11:17:50.301Z,4532
2016-12-28T11:19:12.497Z,4496
2016-12-28T11:20:34.443Z,4484
2016-12-28T11:21:56.682Z,4548
2016-12-28T11:23:18.495Z,4516
2016-12-28T11:24:39.670Z,4552
2016-12-28T11:26:01.814Z,4656
2016-12-28T11:27:23.697Z,4772
2016-12-28T11:28:45.838Z,4940
2016-12-28T11:30:07.662Z,5128
2016-12-28T11:31:29.816Z,4896
2016-12-28T11:32:52.085Z,4928
2016-12-28T11:34:14.291Z,5164
2016-12-28T11:35:35.856Z,5236
2016-12-28T11:36:58.010Z,5220
2016-12-28T11:38:20.115Z,5360
2016-12-28T11:39:41.589Z,5492
2016-12-28T11:41:04.003Z,5468
2016-12-28T11:42:25.843Z,5508
2016-12-28T11:43:48.383Z,5584
2016-12-28T11:45:09.527Z,5428
2016-12-28T11:46:31.968Z,5448
2016-12-28T11:47:53.790Z,5560
2016-12-28T11:49:16.192Z,5564
2016-12-28T11:50:38.353Z,5540
2016-12-28T11:52:00.739Z,5572
2016-12-28T11:53:23.412Z,5616
2016-12-28T11:54:45.499Z,5652
2016-12-28T11:56:08.388Z,5424
2016-12-28T11:57:30.912Z,5308
2016-12-28T11:58:53.768Z,5340
2016-12-28T12:00:15.979Z,5480
2016-12-28T12:01:38.840Z,5444
2016-12-28T12:03:01.280Z,5268
2016-12-28T12:04:24.215Z,5140
2016-12-28T12:05:45.923Z,5184
2016-12-28T12:07:08.399Z,4952
2016-12-28T12:08:30.045Z,4584
2016-12-28T12:09:52.086Z,4392
2016-12-28T12:11:13.762Z,4172
2016-12-28T12:12:36.617Z,4032
2016-12-28T12:13:59.067Z,4032
2016-12-28T12:15:21.236Z,4024
2016-12-28T12:16:43.271Z,4024
2016-12-28T12:18:05.340Z,4028
2016-12-28T12:19:27.781Z,3800
2016-12-28T12:20:49.815Z,3524
2016-12-28T12:22:12.349Z,3464
2016-12-28T12:23:35.229Z,3572
2016-12-28T12:24:57.694Z,3668
2016-12-28T12:26:20.216Z,3688
2016-12-28T12:27:42.640Z,3528
2016-12-28T12:29:04.676Z,3496
2016-12-28T12:30:27.110Z,3548
2016-12-28T12:31:49.993Z,3568
2016-12-28T12:33:12.093Z,3492
2016-12-28T12:34:34.224Z,3344
2016-12-28T12:35:57.090Z,3140
2016-12-28T12:37:19.945Z,3032
2016-12-28T12:38:42.018Z,2972
2016-12-28T12:40:04.159Z,2920
2016-12-28T12:41:26.391Z,2936
2016-12-28T12:42:48.435Z,3060
2016-12-28T12:44:11.372Z,3220
2016-12-28T12:45:34.190Z,3292
2016-12-28T12:46:56.774Z,3280
2016-12-28T12:48:19.197Z,3232
2016-12-28T12:49:42.065Z,3160
2016-12-28T12:51:04.989Z,2984
2016-12-28T12:52:27.420Z,2928
2016-12-28T12:53:50.423Z,2984
2016-12-28T12:55:12.179Z,3040
2016-12-28T12:56:35.026Z,3000
2016-12-28T12:57:57.861Z,2904
2016-12-28T12:59:20.690Z,2904
2016-12-28T13:00:43.211Z,2904
2016-12-28T13:02:06.083Z,2896
2016-12-28T13:03:28.641Z,2872
2016-12-28T13:04:50.714Z,2812
2016-12-28T13:06:12.786Z,2728
2016-12-28T13:07:35.292Z,2604
2016-12-28T13:08:57.344Z,2464
2016-12-28T13:10:19.913Z,2456
2016-12-28T13:11:42.515Z,2468
2016-12-28T13:13:04.966Z,2668
2016-12-28T13:14:27.812Z,2644
2016-12-28T13:15:50.231Z,2540
2016-12-28T13:17:11.992Z,2528
2016-12-28T13:18:34.483Z,2420
2016-12-28T13:19:56.936Z,2300
2016-12-28T13:21:19.758Z,2152
2016-12-28T13:22:42.257Z,2124
2016-12-28T13:24:05.252Z,2140
2016-12-28T13:25:27.719Z,2048
2016-12-28T13:26:50.667Z,1956
2016-12-28T13:28:13.083Z,1908
2016-12-28T13:29:35.159Z,1828
2016-12-28T13:30:57.288Z,1764
2016-12-28T13:32:19.332Z,1752
2016-12-28T13:33:42.165Z,1724
2016-12-28T13:35:04.836Z,1628
2016-12-28T13:36:26.990Z,1512
2016-12-28T13:37:49.445Z,1404
2016-12-28T13:39:11.910Z,1276
2016-12-28T13:40:34.836Z,1232
2016-12-28T13:41:56.495Z,1272
2016-12-28T13:43:18.169Z,1272
2016-12-28T13:44:41.096Z,1248
2016-12-28T13:46:03.944Z,1216
2016-12-28T13:47:26.146Z,1188
2016-12-28T13:48:48.305Z,1136
2016-12-28T13:50:11.388Z,1144
2016-12-28T13:51:33.851Z,1116
2016-12-28T13:52:56.789Z,1076
2016-12-28T13:54:19.667Z,1056
2016-12-28T13:55:41.828Z,1048
2016-12-28T13:57:03.930Z,1012
2016-12-28T13:58:26.433Z,984
2016-12-28T13:59:48.467Z,932
2016-12-28T14:01:10.904Z,900
2016-12-28T14:02:32.987Z,944
2016-12-28T14:03:55.010Z,956
2016-12-28T14:05:17.863Z,916
2016-12-28T14:06:40.308Z,892
2016-12-28T14:08:02.752Z,936
2016-12-28T14:09:24.395Z,936
2016-12-28T14:10:47.335Z,904
2016-12-28T14:12:10.182Z,892
2016-12-28T14:13:32.294Z,892
2016-12-28T14:14:54.014Z,908
2016-12-28T14:16:16.518Z,920
2016-12-28T14:17:38.665Z,924
2016-12-28T14:19:01.312Z,920
2016-12-28T14:20:22.946Z,896
2016-12-28T14:21:45.793Z,880
2016-12-28T14:23:08.663Z,856
2016-12-28T14:24:31.112Z,836
2016-12-28T14:25:53.569Z,804
2016-12-28T14:27:15.647Z,784
2016-12-28T14:28:38.606Z,732
2016-12-28T14:30:01.448Z,664
2016-12-28T14:31:24.443Z,672
2016-12-28T14:32:47.364Z,676
2016-12-28T14:34:10.188Z,636
2016-12-28T14:35:32.848Z,608
2016-12-28T14:36:55.717Z,588
2016-12-28T14:38:18.731Z,580
2016-12-28T14:39:41.170Z,540
2016-12-28T14:41:04.006Z,480
2016-12-28T14:42:26.440Z,440
2016-12-28T14:43:48.591Z,408
2016-12-28T14:45:11.489Z,376
2016-12-28T14:46:33.549Z,360
2016-12-28T14:47:55.354Z,356
2016-12-28T14:49:50.094Z,340
2016-12-28T14:51:12.287Z,332
2016-12-28T14:52:34.889Z,324
2016-12-28T14:53:56.561Z,320
2016-12-28T14:55:19.523Z,308
2016-12-28T14:56:42.571Z,296
2016-12-28T14:58:05.388Z,284
2016-12-28T14:59:27.855Z,268
2016-12-28T15:00:50.422Z,252
2016-12-28T15:02:12.481Z,240
2016-12-28T15:03:35.521Z,224
2016-12-28T15:04:57.969Z,204
2016-12-28T15:06:20.015Z,192
2016-12-28T15:07:42.057Z,176
2016-12-28T15:09:04.995Z,160
2016-12-28T15:10:27.466Z,148
2016-12-28T15:11:50.309Z,136
2016-12-28T15:13:13.213Z,120
2016-12-28T15:14:35.683Z,108
2016-12-28T15:15:57.348Z,100
2016-12-28T15:17:19.886Z,92
2016-12-28T15:18:41.942Z,76
2016-12-28T15:20:04.022Z,68
2016-12-28T15:21:26.579Z,60
2016-12-28T15:22:49.041Z,52
2016-12-28T15:24:11.466Z,48
2016-12-28T15:25:33.516Z,44
2016-12-28T15:26:56.435Z,40
2016-12-28T15:28:19.418Z,36
2016-12-28T15:29:41.868Z,28
2016-12-28T15:31:03.902Z,24
2016-12-28T15:32:25.939Z,20
2016-12-28T15:33:48.392Z,16
2016-12-28T15:35:10.419Z,12
2016-12-28T15:36:33.240Z,12
2016-12-28T15:37:54.899Z,12
2016-12-28T15:39:16.583Z,8
2016-12-28T15:40:39.229Z,8
2016-12-28T15:42:01.680Z,8
2016-12-28T15:43:23.903Z,4
2016-12-28T15:44:46.379Z,4
2016-12-28T15:46:08.198Z,4
2016-12-28T15:47:30.259Z,4
2016-12-28T15:48:52.347Z,4
2016-12-28T15:50:14.853Z,0
2016-12-28T15:51:37.292Z,4
2016-12-28T15:53:00.128Z,0
2016-12-28T15:54:22.241Z,0
2016-12-28T15:55:44.304Z,0
2016-12-28T15:57:07.164Z,0
2016-12-28T15:58:30.016Z,0
2016-12-28T15:59:52.471Z,0
2016-12-28T16:01:14.965Z,0
2016-12-28T16:02:36.986Z,0
2016-12-28T16:03:59.497Z,0
2016-12-28T16:05:21.646Z,0
2016-12-28T16:06:44.653Z,0
2016-12-28T16:08:07.513Z,0
2016-12-28T16:09:29.954Z,0
2016-12-28T16:10:52.854Z,0
2016-12-28T16:12:15.305Z,0
2016-12-28T16:13:37.363Z,0
2016-12-28T16:15:00.224Z,0
2016-12-28T16:16:22.679Z,0
2016-12-28T16:17:44.970Z,0
2016-12-28T16:19:07.458Z,0
2016-12-28T16:20:29.567Z,0
2016-12-28T16:21:51.993Z,0
2016-12-28T16:23:14.054Z,0
2016-12-28T16:24:36.494Z,0
2016-12-28T16:25:59.400Z,0
2016-12-28T16:27:21.287Z,0
2016-12-28T16:29:15.446Z,0
2016-12-28T16:30:38.877Z,0
2016-12-28T16:32:01.326Z,0
2016-12-28T16:33:23.918Z,0
2016-12-28T16:34:46.803Z,0
2016-12-28T16:36:09.235Z,0
2016-12-28T16:37:30.915Z,0
2016-12-28T16:38:53.369Z,0
2016-12-28T16:40:15.840Z,0
2016-12-28T16:41:38.372Z,0
2016-12-28T16:43:01.263Z,0
2016-12-28T16:44:23.354Z,0
2016-12-28T16:45:45.405Z,0
2016-12-28T16:47:08.094Z,0
2016-12-28T16:48:30.157Z,0
2016-12-28T16:49:52.231Z,0
2016-12-28T16:51:14.687Z,0
2016-12-28T16:52:37.143Z,0
2016-12-28T16:53:59.628Z,0
2016-12-28T16:55:22.272Z,0
2016-12-28T16:56:44.410Z,0
2016-12-28T16:58:06.880Z,0
2016-12-28T16:59:29.336Z,0
2016-12-28T17:00:50.570Z,0
2016-12-28T17:02:13.053Z,0
2016-12-28T17:03:34.713Z,0
2016-12-28T17:04:56.351Z,0
2016-12-28T17:06:18.801Z,0
2016-12-28T17:07:41.246Z,0
2016-12-28T17:09:03.731Z,0
2016-12-28T17:10:26.173Z,0
2016-12-28T17:11:47.805Z,0
2016-12-28T17:13:09.912Z,0
2016-12-28T17:14:31.564Z,0
2016-12-28T17:15:53.221Z,0
2016-12-28T17:17:14.477Z,0
2016-12-28T17:18:36.121Z,0
2016-12-28T17:19:58.582Z,0
2016-12-28T17:21:20.671Z,0
2016-12-28T17:22:42.324Z,0
2016-12-28T17:24:04.821Z,0
2016-12-28T17:25:27.348Z,0
2016-12-28T17:26:50.272Z,0
2016-12-28T17:28:12.719Z,0
2016-12-28T17:29:34.776Z,0
2016-12-28T17:30:57.621Z,0
2016-12-28T17:32:20.080Z,0
2016-12-28T17:33:41.902Z,0
2016-12-28T17:35:04.401Z,0
2016-12-28T17:36:26.637Z,0
2016-12-28T17:37:49.070Z,0
2016-12-28T17:39:11.555Z,0
2016-12-28T17:40:34.019Z,0
2016-12-28T17:41:56.461Z,0
2016-12-28T17:43:18.489Z,0
2016-12-28T17:44:40.951Z,0
2016-12-28T17:46:03.404Z,0
2016-12-28T17:47:25.048Z,0
2016-12-28T17:48:47.943Z,0
2016-12-28T17:50:09.965Z,0
2016-12-28T17:51:32.802Z,0
2016-12-28T17:52:54.447Z,0
2016-12-28T17:54:17.042Z,0
2016-12-28T17:55:38.701Z,0
2016-12-28T17:57:00.752Z,0
2016-12-28T17:58:22.406Z,0
2016-12-28T17:59:45.281Z,0
2016-12-28T18:01:07.375Z,0
2016-12-28T18:02:29.442Z,0
2016-12-28T18:03:52.313Z,0
2016-12-28T18:05:14.804Z,0
2016-12-28T18:06:37.355Z,0
2016-12-28T18:07:59.816Z,0
2016-12-28T18:09:21.856Z,0
2016-12-28T18:10:44.847Z,0
2016-12-28T18:12:07.659Z,0
2016-12-28T18:13:30.365Z,0
2016-12-28T18:14:52.841Z,0
2016-12-28T18:16:14.548Z,0
2016-12-28T18:17:37.007Z,0
2016-12-28T18:18:59.037Z,0
2016-12-28T18:20:20.698Z,0
2016-12-28T18:21:43.157Z,0
2016-12-28T18:23:05.219Z,0
2016-12-28T18:24:28.133Z,0
2016-12-28T18:25:50.797Z,0
2016-12-28T18:27:45.345Z,0
2016-12-28T18:29:08.174Z,0
2016-12-28T18:30:30.990Z,0
2016-12-28T18:31:53.435Z,0
2016-12-28T18:33:16.244Z,0
2016-12-28T18:34:38.661Z,0
2016-12-28T18:36:00.795Z,0
2016-12-28T18:37:23.359Z,0
2016-12-28T18:38:46.196Z,0
2016-12-28T18:40:08.231Z,0
2016-12-28T18:41:30.689Z,0
2016-12-28T18:42:52.372Z,0
2016-12-28T18:44:15.384Z,0
2016-12-28T18:45:38.201Z,0
2016-12-28T18:47:01.202Z,0
2016-12-28T18:48:23.715Z,0
2016-12-28T18:49:46.568Z,0
2016-12-28T18:51:08.266Z,0
2016-12-28T18:52:31.122Z,0
2016-12-28T18:53:53.625Z,0
2016-12-28T18:55:16.443Z,0
2016-12-28T18:56:38.175Z,0
2016-12-28T18:58:01.134Z,0
2016-12-28T18:59:23.156Z,0
2016-12-28T19:00:45.639Z,0
2016-12-28T19:02:08.064Z,0
2016-12-28T19:03:30.176Z,0
2016-12-28T19:04:52.603Z,0
2016-12-28T19:06:15.015Z,0
2016-12-28T19:07:37.837Z,0
2016-12-28T19:09:00.400Z,0
2016-12-28T19:10:22.447Z,0
2016-12-28T19:11:45.377Z,0
2016-12-28T19:13:08.208Z,0
2016-12-28T19:14:31.023Z,0
2016-12-28T19:15:53.456Z,0
2016-12-28T19:17:16.350Z,0
2016-12-28T19:18:39.157Z,0
2016-12-28T19:20:01.957Z,0
2016-12-28T19:21:23.996Z,0
2016-12-28T19:22:46.029Z,0
2016-12-28T19:24:08.490Z,0
2016-12-28T19:25:30.560Z,0
2016-12-28T19:26:52.301Z,0
2016-12-28T19:28:14.755Z,0